sensor_id;sensor_type;location;lat;lon;timestamp;P1;durP1;ratioP1;P2;durP2;ratioP2
47429;SDS011;33181;49.246;7.372;2023-06-10T00:00:49;13.93;;;10.60;;
47429;SDS011;33181;49.246;7.372;2023-06-10T00:03:16;11.47;;;10.37;;
47429;SDS011;33181;49.246;7.372;2023-06-10T00:05:42;13.87;;;11.50;;
47429;SDS011;33181;49.246;7.372;2023-06-10T00:08:08;12.80;;;10.67;;
47429;SDS011;33181;49.246;7.372;2023-06-10T00:10:38;12.37;;;10.77;;
47429;SDS011;33181;49.246;7.372;2023-06-10T00:13:07;11.63;;;10.43;;
47429;SDS011;33181;49.246;7.372;2023-06-10T00:15:34;11.17;;;10.17;;
47429;SDS011;33181;49.246;7.372;2023-06-10T00:18:00;11.40;;;10.30;;
47429;SDS011;33181;49.246;7.372;2023-06-10T00:20:28;11.43;;;10.23;;
47429;SDS011;33181;49.246;7.372;2023-06-10T00:22:55;11.43;;;10.23;;
47429;SDS011;33181;49.246;7.372;2023-06-10T00:25:26;11.43;;;10.33;;
47429;SDS011;33181;49.246;7.372;2023-06-10T00:27:52;11.20;;;10.10;;
47429;SDS011;33181;49.246;7.372;2023-06-10T00:30:18;10.80;;;9.70;;
47429;SDS011;33181;49.246;7.372;2023-06-10T00:32:43;11.57;;;10.37;;
47429;SDS011;33181;49.246;7.372;2023-06-10T00:35:09;11.00;;;10.00;;
47429;SDS011;33181;49.246;7.372;2023-06-10T00:37:35;12.10;;;10.80;;
47429;SDS011;33181;49.246;7.372;2023-06-10T00:40:02;10.90;;;9.90;;
47429;SDS011;33181;49.246;7.372;2023-06-10T00:42:29;11.10;;;10.00;;
47429;SDS011;33181;49.246;7.372;2023-06-10T00:44:56;11.10;;;10.00;;
47429;SDS011;33181;49.246;7.372;2023-06-10T00:47:22;12.20;;;10.87;;
47429;SDS011;33181;49.246;7.372;2023-06-10T00:49:49;10.60;;;9.60;;
47429;SDS011;33181;49.246;7.372;2023-06-10T00:52:16;11.80;;;10.60;;
47429;SDS011;33181;49.246;7.372;2023-06-10T00:54:44;11.93;;;10.77;;
47429;SDS011;33181;49.246;7.372;2023-06-10T00:57:11;12.10;;;10.80;;
47429;SDS011;33181;49.246;7.372;2023-06-10T00:59:41;11.83;;;10.70;;
47429;SDS011;33181;49.246;7.372;2023-06-10T01:02:13;11.60;;;10.43;;
47429;SDS011;33181;49.246;7.372;2023-06-10T01:04:39;12.50;;;10.87;;
47429;SDS011;33181;49.246;7.372;2023-06-10T01:13:05;11.40;;;10.20;;
47429;SDS011;33181;49.246;7.372;2023-06-10T01:15:34;12.17;;;10.87;;
47429;SDS011;33181;49.246;7.372;2023-06-10T01:18:01;11.93;;;10.57;;
47429;SDS011;33181;49.246;7.372;2023-06-10T01:20:39;11.90;;;10.70;;
47429;SDS011;33181;49.246;7.372;2023-06-10T01:23:08;13.07;;;11.37;;
47429;SDS011;33181;49.246;7.372;2023-06-10T01:25:38;12.53;;;11.33;;
47429;SDS011;33181;49.246;7.372;2023-06-10T01:28:38;12.43;;;11.13;;
47429;SDS011;33181;49.246;7.372;2023-06-10T01:31:25;15.33;;;11.87;;
47429;SDS011;33181;49.246;7.372;2023-06-10T01:34:13;11.27;;;10.17;;
47429;SDS011;33181;49.246;7.372;2023-06-10T01:36:45;15.63;;;10.70;;
47429;SDS011;33181;49.246;7.372;2023-06-10T01:39:14;12.57;;;11.13;;
47429;SDS011;33181;49.246;7.372;2023-06-10T01:41:42;12.73;;;11.10;;
47429;SDS011;33181;49.246;7.372;2023-06-10T01:44:08;11.77;;;10.57;;
47429;SDS011;33181;49.246;7.372;2023-06-10T01:46:36;12.80;;;11.50;;
47429;SDS011;33181;49.246;7.372;2023-06-10T01:49:02;12.60;;;11.40;;
47429;SDS011;33181;49.246;7.372;2023-06-10T01:51:28;11.33;;;10.23;;
47429;SDS011;33181;49.246;7.372;2023-06-10T01:53:55;11.63;;;10.43;;
47429;SDS011;33181;49.246;7.372;2023-06-10T01:56:21;11.70;;;10.60;;
47429;SDS011;33181;49.246;7.372;2023-06-10T01:58:47;12.57;;;11.10;;
47429;SDS011;33181;49.246;7.372;2023-06-10T02:01:13;12.03;;;10.83;;
47429;SDS011;33181;49.246;7.372;2023-06-10T02:03:39;12.17;;;10.97;;
47429;SDS011;33181;49.246;7.372;2023-06-10T02:06:06;12.77;;;11.50;;
47429;SDS011;33181;49.246;7.372;2023-06-10T02:08:32;13.50;;;11.47;;
47429;SDS011;33181;49.246;7.372;2023-06-10T02:10:57;12.20;;;11.00;;
47429;SDS011;33181;49.246;7.372;2023-06-10T02:13:24;11.93;;;10.73;;
47429;SDS011;33181;49.246;7.372;2023-06-10T02:15:52;13.43;;;11.40;;
47429;SDS011;33181;49.246;7.372;2023-06-10T02:18:19;14.23;;;12.20;;
47429;SDS011;33181;49.246;7.372;2023-06-10T02:20:46;12.70;;;11.40;;
47429;SDS011;33181;49.246;7.372;2023-06-10T02:23:12;12.30;;;11.07;;
47429;SDS011;33181;49.246;7.372;2023-06-10T02:25:37;12.00;;;10.77;;
47429;SDS011;33181;49.246;7.372;2023-06-10T02:28:07;13.03;;;11.83;;
47429;SDS011;33181;49.246;7.372;2023-06-10T02:30:34;13.50;;;11.37;;
47429;SDS011;33181;49.246;7.372;2023-06-10T02:33:01;13.83;;;12.40;;
47429;SDS011;33181;49.246;7.372;2023-06-10T02:35:27;13.30;;;11.93;;
47429;SDS011;33181;49.246;7.372;2023-06-10T02:37:53;13.30;;;11.67;;
47429;SDS011;33181;49.246;7.372;2023-06-10T02:40:19;13.83;;;11.63;;
47429;SDS011;33181;49.246;7.372;2023-06-10T02:42:45;13.50;;;12.10;;
47429;SDS011;33181;49.246;7.372;2023-06-10T02:45:11;13.80;;;12.27;;
47429;SDS011;33181;49.246;7.372;2023-06-10T02:47:37;14.00;;;12.50;;
47429;SDS011;33181;49.246;7.372;2023-06-10T02:50:07;13.17;;;11.73;;
47429;SDS011;33181;49.246;7.372;2023-06-10T02:52:33;13.63;;;11.90;;
47429;SDS011;33181;49.246;7.372;2023-06-10T02:54:59;13.10;;;11.80;;
47429;SDS011;33181;49.246;7.372;2023-06-10T02:57:25;12.90;;;11.60;;
47429;SDS011;33181;49.246;7.372;2023-06-10T02:59:51;12.90;;;11.70;;
47429;SDS011;33181;49.246;7.372;2023-06-10T03:02:18;13.83;;;12.33;;
47429;SDS011;33181;49.246;7.372;2023-06-10T03:04:44;13.30;;;12.00;;
47429;SDS011;33181;49.246;7.372;2023-06-10T03:07:10;13.43;;;12.03;;
47429;SDS011;33181;49.246;7.372;2023-06-10T03:09:36;13.63;;;12.07;;
47429;SDS011;33181;49.246;7.372;2023-06-10T03:12:02;13.67;;;12.00;;
47429;SDS011;33181;49.246;7.372;2023-06-10T03:14:28;13.60;;;12.10;;
47429;SDS011;33181;49.246;7.372;2023-06-10T03:16:54;12.80;;;11.60;;
47429;SDS011;33181;49.246;7.372;2023-06-10T03:19:20;12.90;;;11.63;;
47429;SDS011;33181;49.246;7.372;2023-06-10T03:21:49;13.90;;;12.50;;
47429;SDS011;33181;49.246;7.372;2023-06-10T03:24:31;12.67;;;11.37;;
47429;SDS011;33181;49.246;7.372;2023-06-10T03:26:57;16.13;;;11.50;;
47429;SDS011;33181;49.246;7.372;2023-06-10T03:29:23;12.67;;;11.37;;
47429;SDS011;33181;49.246;7.372;2023-06-10T03:31:52;14.37;;;12.10;;
47429;SDS011;33181;49.246;7.372;2023-06-10T03:34:18;13.80;;;12.30;;
47429;SDS011;33181;49.246;7.372;2023-06-10T03:36:43;11.97;;;10.77;;
47429;SDS011;33181;49.246;7.372;2023-06-10T03:39:10;12.90;;;11.60;;
47429;SDS011;33181;49.246;7.372;2023-06-10T03:41:35;12.80;;;11.47;;
47429;SDS011;33181;49.246;7.372;2023-06-10T03:44:02;12.50;;;11.30;;
47429;SDS011;33181;49.246;7.372;2023-06-10T03:46:28;13.67;;;12.27;;
47429;SDS011;33181;49.246;7.372;2023-06-10T03:48:54;13.83;;;12.43;;
47429;SDS011;33181;49.246;7.372;2023-06-10T03:51:21;14.20;;;12.70;;
47429;SDS011;33181;49.246;7.372;2023-06-10T03:53:48;13.70;;;12.30;;
47429;SDS011;33181;49.246;7.372;2023-06-10T03:56:13;13.67;;;11.73;;
47429;SDS011;33181;49.246;7.372;2023-06-10T03:58:39;12.40;;;11.17;;
47429;SDS011;33181;49.246;7.372;2023-06-10T04:01:05;13.33;;;11.93;;
47429;SDS011;33181;49.246;7.372;2023-06-10T04:03:32;13.43;;;12.03;;
47429;SDS011;33181;49.246;7.372;2023-06-10T04:05:58;12.63;;;11.43;;
47429;SDS011;33181;49.246;7.372;2023-06-10T04:08:24;13.03;;;11.73;;
47429;SDS011;33181;49.246;7.372;2023-06-10T04:10:50;13.83;;;12.43;;
47429;SDS011;33181;49.246;7.372;2023-06-10T04:13:17;12.33;;;11.13;;
47429;SDS011;33181;49.246;7.372;2023-06-10T04:15:44;12.40;;;11.20;;
47429;SDS011;33181;49.246;7.372;2023-06-10T04:18:10;13.93;;;11.33;;
47429;SDS011;33181;49.246;7.372;2023-06-10T04:20:36;11.67;;;10.47;;
47429;SDS011;33181;49.246;7.372;2023-06-10T04:23:03;14.10;;;11.03;;
47429;SDS011;33181;49.246;7.372;2023-06-10T04:25:28;11.70;;;10.50;;
47429;SDS011;33181;49.246;7.372;2023-06-10T04:27:54;11.90;;;10.70;;
47429;SDS011;33181;49.246;7.372;2023-06-10T04:30:21;12.00;;;10.77;;
47429;SDS011;33181;49.246;7.372;2023-06-10T04:32:47;13.00;;;10.90;;
47429;SDS011;33181;49.246;7.372;2023-06-10T04:35:13;13.40;;;12.10;;
47429;SDS011;33181;49.246;7.372;2023-06-10T04:37:40;17.47;;;15.77;;
47429;SDS011;33181;49.246;7.372;2023-06-10T04:40:08;14.23;;;12.77;;
47429;SDS011;33181;49.246;7.372;2023-06-10T04:42:35;19.07;;;17.07;;
47429;SDS011;33181;49.246;7.372;2023-06-10T04:45:03;18.50;;;16.70;;
47429;SDS011;33181;49.246;7.372;2023-06-10T04:47:30;18.17;;;16.47;;
47429;SDS011;33181;49.246;7.372;2023-06-10T04:50:03;17.40;;;15.77;;
47429;SDS011;33181;49.246;7.372;2023-06-10T04:52:29;19.50;;;17.37;;
47429;SDS011;33181;49.246;7.372;2023-06-10T04:54:56;17.97;;;16.10;;
47429;SDS011;33181;49.246;7.372;2023-06-10T04:57:23;18.63;;;16.73;;
47429;SDS011;33181;49.246;7.372;2023-06-10T04:59:49;17.70;;;15.90;;
47429;SDS011;33181;49.246;7.372;2023-06-10T05:02:14;18.27;;;15.90;;
47429;SDS011;33181;49.246;7.372;2023-06-10T05:04:40;17.40;;;15.70;;
47429;SDS011;33181;49.246;7.372;2023-06-10T05:07:06;18.03;;;16.33;;
47429;SDS011;33181;49.246;7.372;2023-06-10T05:09:32;17.83;;;16.03;;
47429;SDS011;33181;49.246;7.372;2023-06-10T05:11:58;17.63;;;15.83;;
47429;SDS011;33181;49.246;7.372;2023-06-10T05:14:24;15.47;;;13.80;;
47429;SDS011;33181;49.246;7.372;2023-06-10T05:16:50;15.10;;;13.50;;
47429;SDS011;33181;49.246;7.372;2023-06-10T05:19:15;14.70;;;13.20;;
47429;SDS011;33181;49.246;7.372;2023-06-10T05:21:44;15.67;;;13.10;;
47429;SDS011;33181;49.246;7.372;2023-06-10T05:24:10;14.90;;;13.50;;
47429;SDS011;33181;49.246;7.372;2023-06-10T05:26:36;14.83;;;13.30;;
47429;SDS011;33181;49.246;7.372;2023-06-10T05:29:07;14.40;;;13.00;;
47429;SDS011;33181;49.246;7.372;2023-06-10T05:31:38;15.90;;;14.30;;
47429;SDS011;33181;49.246;7.372;2023-06-10T05:34:09;15.80;;;13.83;;
47429;SDS011;33181;49.246;7.372;2023-06-10T05:36:35;17.17;;;15.50;;
47429;SDS011;33181;49.246;7.372;2023-06-10T05:39:02;17.83;;;15.77;;
47429;SDS011;33181;49.246;7.372;2023-06-10T05:41:28;17.83;;;15.97;;
47429;SDS011;33181;49.246;7.372;2023-06-10T05:43:54;15.97;;;14.33;;
47429;SDS011;33181;49.246;7.372;2023-06-10T05:46:20;15.70;;;14.20;;
47429;SDS011;33181;49.246;7.372;2023-06-10T05:48:46;15.67;;;13.70;;
47429;SDS011;33181;49.246;7.372;2023-06-10T05:51:12;14.70;;;13.23;;
47429;SDS011;33181;49.246;7.372;2023-06-10T05:53:38;13.93;;;12.63;;
47429;SDS011;33181;49.246;7.372;2023-06-10T05:56:04;14.70;;;13.20;;
47429;SDS011;33181;49.246;7.372;2023-06-10T05:58:30;14.10;;;12.73;;
47429;SDS011;33181;49.246;7.372;2023-06-10T06:00:56;14.90;;;11.63;;
47429;SDS011;33181;49.246;7.372;2023-06-10T06:03:25;14.03;;;12.63;;
47429;SDS011;33181;49.246;7.372;2023-06-10T06:06:07;13.70;;;12.30;;
47429;SDS011;33181;49.246;7.372;2023-06-10T06:08:33;12.30;;;10.97;;
47429;SDS011;33181;49.246;7.372;2023-06-10T06:10:59;12.10;;;10.87;;
47429;SDS011;33181;49.246;7.372;2023-06-10T06:13:28;13.80;;;12.40;;
47429;SDS011;33181;49.246;7.372;2023-06-10T06:15:54;14.07;;;11.93;;
47429;SDS011;33181;49.246;7.372;2023-06-10T06:18:19;15.67;;;12.47;;
47429;SDS011;33181;49.246;7.372;2023-06-10T06:20:45;11.73;;;10.63;;
47429;SDS011;33181;49.246;7.372;2023-06-10T06:23:11;12.17;;;10.50;;
47429;SDS011;33181;49.246;7.372;2023-06-10T06:25:37;11.10;;;9.90;;
47429;SDS011;33181;49.246;7.372;2023-06-10T06:28:09;15.13;;;13.30;;
47429;SDS011;33181;49.246;7.372;2023-06-10T06:30:35;11.37;;;10.27;;
47429;SDS011;33181;49.246;7.372;2023-06-10T06:33:01;11.90;;;10.70;;
47429;SDS011;33181;49.246;7.372;2023-06-10T06:35:30;11.70;;;10.60;;
47429;SDS011;33181;49.246;7.372;2023-06-10T06:38:00;12.50;;;11.30;;
47429;SDS011;33181;49.246;7.372;2023-06-10T06:40:26;11.33;;;10.23;;
47429;SDS011;33181;49.246;7.372;2023-06-10T06:42:51;16.70;;;10.13;;
47429;SDS011;33181;49.246;7.372;2023-06-10T06:45:17;10.03;;;9.03;;
47429;SDS011;33181;49.246;7.372;2023-06-10T06:47:43;11.60;;;10.10;;
47429;SDS011;33181;49.246;7.372;2023-06-10T06:50:09;10.47;;;9.37;;
47429;SDS011;33181;49.246;7.372;2023-06-10T06:52:39;11.33;;;10.23;;
47429;SDS011;33181;49.246;7.372;2023-06-10T06:55:05;10.23;;;9.17;;
47429;SDS011;33181;49.246;7.372;2023-06-10T06:57:31;9.50;;;8.50;;
47429;SDS011;33181;49.246;7.372;2023-06-10T06:59:57;16.10;;;9.13;;
47429;SDS011;33181;49.246;7.372;2023-06-10T07:02:23;10.20;;;8.83;;
47429;SDS011;33181;49.246;7.372;2023-06-10T07:04:50;9.23;;;8.33;;
47429;SDS011;33181;49.246;7.372;2023-06-10T07:07:16;9.73;;;8.73;;
47429;SDS011;33181;49.246;7.372;2023-06-10T07:09:42;10.03;;;9.00;;
47429;SDS011;33181;49.246;7.372;2023-06-10T07:12:08;9.33;;;8.47;;
47429;SDS011;33181;49.246;7.372;2023-06-10T07:14:34;9.60;;;8.70;;
47429;SDS011;33181;49.246;7.372;2023-06-10T07:17:00;9.40;;;8.33;;
47429;SDS011;33181;49.246;7.372;2023-06-10T07:19:48;9.37;;;8.47;;
47429;SDS011;33181;49.246;7.372;2023-06-10T07:22:24;9.27;;;8.37;;
47429;SDS011;33181;49.246;7.372;2023-06-10T07:24:50;9.30;;;8.37;;
47429;SDS011;33181;49.246;7.372;2023-06-10T07:27:16;9.10;;;8.20;;
47429;SDS011;33181;49.246;7.372;2023-06-10T07:29:45;8.70;;;7.90;;
47429;SDS011;33181;49.246;7.372;2023-06-10T07:32:11;8.23;;;7.43;;
47429;SDS011;33181;49.246;7.372;2023-06-10T07:34:37;7.90;;;7.20;;
47429;SDS011;33181;49.246;7.372;2023-06-10T07:37:03;8.00;;;7.30;;
47429;SDS011;33181;49.246;7.372;2023-06-10T07:39:30;7.60;;;6.90;;
47429;SDS011;33181;49.246;7.372;2023-06-10T07:41:57;8.97;;;7.00;;
47429;SDS011;33181;49.246;7.372;2023-06-10T07:44:23;15.70;;;7.90;;
47429;SDS011;33181;49.246;7.372;2023-06-10T07:46:49;8.53;;;7.73;;
47429;SDS011;33181;49.246;7.372;2023-06-10T07:49:15;8.27;;;7.33;;
47429;SDS011;33181;49.246;7.372;2023-06-10T07:51:41;8.13;;;7.10;;
47429;SDS011;33181;49.246;7.372;2023-06-10T07:54:07;7.43;;;6.73;;
47429;SDS011;33181;49.246;7.372;2023-06-10T07:56:33;7.37;;;6.63;;
47429;SDS011;33181;49.246;7.372;2023-06-10T07:58:59;9.20;;;7.07;;
47429;SDS011;33181;49.246;7.372;2023-06-10T08:01:25;7.40;;;6.67;;
47429;SDS011;33181;49.246;7.372;2023-06-10T08:03:51;7.30;;;6.60;;
47429;SDS011;33181;49.246;7.372;2023-06-10T08:06:17;7.20;;;6.50;;
47429;SDS011;33181;49.246;7.372;2023-06-10T08:08:43;7.23;;;6.40;;
47429;SDS011;33181;49.246;7.372;2023-06-10T08:11:11;6.87;;;6.27;;
47429;SDS011;33181;49.246;7.372;2023-06-10T08:13:37;7.27;;;6.57;;
47429;SDS011;33181;49.246;7.372;2023-06-10T08:16:03;8.60;;;6.50;;
47429;SDS011;33181;49.246;7.372;2023-06-10T08:18:29;8.50;;;6.57;;
47429;SDS011;33181;49.246;7.372;2023-06-10T08:20:55;11.33;;;6.00;;
47429;SDS011;33181;49.246;7.372;2023-06-10T08:23:20;6.13;;;5.53;;
47429;SDS011;33181;49.246;7.372;2023-06-10T08:25:46;6.63;;;6.00;;
47429;SDS011;33181;49.246;7.372;2023-06-10T08:28:12;6.43;;;5.83;;
47429;SDS011;33181;49.246;7.372;2023-06-10T08:30:38;7.30;;;6.50;;
47429;SDS011;33181;49.246;7.372;2023-06-10T08:33:04;5.97;;;5.37;;
47429;SDS011;33181;49.246;7.372;2023-06-10T08:35:30;6.83;;;6.07;;
47429;SDS011;33181;49.246;7.372;2023-06-10T08:37:57;7.00;;;6.30;;
47429;SDS011;33181;49.246;7.372;2023-06-10T08:40:23;7.07;;;5.77;;
47429;SDS011;33181;49.246;7.372;2023-06-10T08:42:52;7.27;;;6.00;;
47429;SDS011;33181;49.246;7.372;2023-06-10T08:45:31;6.67;;;5.90;;
47429;SDS011;33181;49.246;7.372;2023-06-10T08:48:00;7.07;;;6.37;;
47429;SDS011;33181;49.246;7.372;2023-06-10T08:50:34;6.60;;;5.90;;
47429;SDS011;33181;49.246;7.372;2023-06-10T08:53:03;11.00;;;6.67;;
47429;SDS011;33181;49.246;7.372;2023-06-10T08:55:32;8.50;;;6.40;;
47429;SDS011;33181;49.246;7.372;2023-06-10T08:58:02;7.93;;;6.90;;
47429;SDS011;33181;49.246;7.372;2023-06-10T09:00:29;6.60;;;5.90;;
47429;SDS011;33181;49.246;7.372;2023-06-10T09:02:57;6.63;;;6.03;;
47429;SDS011;33181;49.246;7.372;2023-06-10T09:05:24;7.23;;;6.60;;
47429;SDS011;33181;49.246;7.372;2023-06-10T09:07:53;8.97;;;6.50;;
47429;SDS011;33181;49.246;7.372;2023-06-10T09:10:22;6.83;;;6.13;;
47429;SDS011;33181;49.246;7.372;2023-06-10T09:12:48;7.70;;;6.67;;
47429;SDS011;33181;49.246;7.372;2023-06-10T09:15:14;7.90;;;7.03;;
47429;SDS011;33181;49.246;7.372;2023-06-10T09:17:42;7.73;;;7.03;;
47429;SDS011;33181;49.246;7.372;2023-06-10T09:20:09;8.50;;;7.60;;
47429;SDS011;33181;49.246;7.372;2023-06-10T09:22:36;9.13;;;6.90;;
47429;SDS011;33181;49.246;7.372;2023-06-10T09:25:05;7.70;;;6.87;;
47429;SDS011;33181;49.246;7.372;2023-06-10T09:27:45;8.20;;;6.43;;
47429;SDS011;33181;49.246;7.372;2023-06-10T09:30:25;8.00;;;6.03;;
47429;SDS011;33181;49.246;7.372;2023-06-10T09:32:52;8.53;;;6.70;;
47429;SDS011;33181;49.246;7.372;2023-06-10T09:35:24;7.53;;;6.53;;
47429;SDS011;33181;49.246;7.372;2023-06-10T09:37:52;9.20;;;7.10;;
47429;SDS011;33181;49.246;7.372;2023-06-10T09:40:19;7.50;;;6.40;;
47429;SDS011;33181;49.246;7.372;2023-06-10T09:42:45;7.67;;;6.50;;
47429;SDS011;33181;49.246;7.372;2023-06-10T09:45:18;7.67;;;6.40;;
47429;SDS011;33181;49.246;7.372;2023-06-10T09:47:45;8.53;;;7.13;;
47429;SDS011;33181;49.246;7.372;2023-06-10T09:50:20;9.17;;;6.60;;
47429;SDS011;33181;49.246;7.372;2023-06-10T09:52:46;6.87;;;6.27;;
47429;SDS011;33181;49.246;7.372;2023-06-10T09:55:13;8.80;;;6.70;;
47429;SDS011;33181;49.246;7.372;2023-06-10T09:57:39;6.30;;;5.80;;
47429;SDS011;33181;49.246;7.372;2023-06-10T10:00:07;7.57;;;6.77;;
47429;SDS011;33181;49.246;7.372;2023-06-10T10:02:52;8.10;;;6.40;;
47429;SDS011;33181;49.246;7.372;2023-06-10T10:05:22;7.77;;;6.33;;
47429;SDS011;33181;49.246;7.372;2023-06-10T10:07:48;7.37;;;6.27;;
47429;SDS011;33181;49.246;7.372;2023-06-10T10:10:15;8.13;;;6.30;;
47429;SDS011;33181;49.246;7.372;2023-06-10T10:12:43;6.63;;;6.03;;
47429;SDS011;33181;49.246;7.372;2023-06-10T10:15:13;7.53;;;6.50;;
47429;SDS011;33181;49.246;7.372;2023-06-10T10:17:49;7.70;;;6.90;;
47429;SDS011;33181;49.246;7.372;2023-06-10T10:20:22;7.10;;;6.40;;
47429;SDS011;33181;49.246;7.372;2023-06-10T10:22:55;7.37;;;6.20;;
47429;SDS011;33181;49.246;7.372;2023-06-10T10:25:23;7.00;;;6.13;;
47429;SDS011;33181;49.246;7.372;2023-06-10T10:27:56;6.93;;;6.23;;
47429;SDS011;33181;49.246;7.372;2023-06-10T10:30:35;7.47;;;6.67;;
47429;SDS011;33181;49.246;7.372;2023-06-10T10:33:12;7.77;;;6.97;;
47429;SDS011;33181;49.246;7.372;2023-06-10T10:35:43;6.87;;;6.17;;
47429;SDS011;33181;49.246;7.372;2023-06-10T10:38:10;6.97;;;6.07;;
47429;SDS011;33181;49.246;7.372;2023-06-10T10:40:37;7.23;;;6.43;;
47429;SDS011;33181;49.246;7.372;2023-06-10T10:43:05;9.90;;;7.20;;
47429;SDS011;33181;49.246;7.372;2023-06-10T10:45:33;8.87;;;7.13;;
47429;SDS011;33181;49.246;7.372;2023-06-10T10:47:59;8.00;;;7.20;;
47429;SDS011;33181;49.246;7.372;2023-06-10T10:50:37;10.63;;;7.40;;
47429;SDS011;33181;49.246;7.372;2023-06-10T10:53:04;7.30;;;6.60;;
47429;SDS011;33181;49.246;7.372;2023-06-10T10:55:31;9.93;;;7.30;;
47429;SDS011;33181;49.246;7.372;2023-06-10T11:00:33;8.83;;;7.10;;
47429;SDS011;33181;49.246;7.372;2023-06-10T11:03:07;8.07;;;7.23;;
47429;SDS011;33181;49.246;7.372;2023-06-10T11:05:44;8.17;;;7.40;;
47429;SDS011;33181;49.246;7.372;2023-06-10T11:09:00;8.13;;;7.37;;
47429;SDS011;33181;49.246;7.372;2023-06-10T11:11:25;8.77;;;7.60;;
47429;SDS011;33181;49.246;7.372;2023-06-10T11:16:29;8.03;;;7.23;;
47429;SDS011;33181;49.246;7.372;2023-06-10T11:18:55;7.77;;;6.80;;
47429;SDS011;33181;49.246;7.372;2023-06-10T11:21:24;8.00;;;7.20;;
47429;SDS011;33181;49.246;7.372;2023-06-10T11:23:51;8.40;;;6.90;;
47429;SDS011;33181;49.246;7.372;2023-06-10T11:31:24;7.67;;;7.00;;
47429;SDS011;33181;49.246;7.372;2023-06-10T11:34:13;7.90;;;7.10;;
47429;SDS011;33181;49.246;7.372;2023-06-10T11:36:40;7.13;;;6.53;;
47429;SDS011;33181;49.246;7.372;2023-06-10T11:39:08;10.13;;;6.90;;
47429;SDS011;33181;49.246;7.372;2023-06-10T11:41:35;9.70;;;6.83;;
47429;SDS011;33181;49.246;7.372;2023-06-10T11:44:05;8.03;;;6.47;;
47429;SDS011;33181;49.246;7.372;2023-06-10T11:46:38;9.77;;;7.30;;
47429;SDS011;33181;49.246;7.372;2023-06-10T11:49:05;9.27;;;7.00;;
47429;SDS011;33181;49.246;7.372;2023-06-10T11:51:35;7.90;;;7.20;;
47429;SDS011;33181;49.246;7.372;2023-06-10T11:54:06;8.20;;;7.17;;
47429;SDS011;33181;49.246;7.372;2023-06-10T11:56:34;8.00;;;7.30;;
47429;SDS011;33181;49.246;7.372;2023-06-10T11:59:04;8.40;;;7.50;;
47429;SDS011;33181;49.246;7.372;2023-06-10T12:01:35;7.50;;;6.80;;
47429;SDS011;33181;49.246;7.372;2023-06-10T12:04:06;9.70;;;7.50;;
47429;SDS011;33181;49.246;7.372;2023-06-10T12:09:22;8.20;;;7.40;;
47429;SDS011;33181;49.246;7.372;2023-06-10T12:12:02;9.43;;;6.77;;
47429;SDS011;33181;49.246;7.372;2023-06-10T12:19:57;9.50;;;7.80;;
47429;SDS011;33181;49.246;7.372;2023-06-10T12:22:23;8.37;;;7.57;;
47429;SDS011;33181;49.246;7.372;2023-06-10T12:27:26;7.70;;;6.97;;
47429;SDS011;33181;49.246;7.372;2023-06-10T12:29:55;8.80;;;7.50;;
47429;SDS011;33181;49.246;7.372;2023-06-10T12:32:45;7.90;;;7.17;;
47429;SDS011;33181;49.246;7.372;2023-06-10T12:35:12;7.77;;;7.03;;
47429;SDS011;33181;49.246;7.372;2023-06-10T12:37:42;9.37;;;7.60;;
47429;SDS011;33181;49.246;7.372;2023-06-10T12:40:25;7.97;;;7.27;;
47429;SDS011;33181;49.246;7.372;2023-06-10T12:42:56;8.33;;;7.53;;
47429;SDS011;33181;49.246;7.372;2023-06-10T12:45:31;8.33;;;7.47;;
47429;SDS011;33181;49.246;7.372;2023-06-10T12:48:18;9.00;;;7.33;;
47429;SDS011;33181;49.246;7.372;2023-06-10T12:50:55;8.40;;;7.60;;
47429;SDS011;33181;49.246;7.372;2023-06-10T12:53:23;8.23;;;7.53;;
47429;SDS011;33181;49.246;7.372;2023-06-10T12:55:53;8.83;;;8.03;;
47429;SDS011;33181;49.246;7.372;2023-06-10T12:58:19;9.17;;;8.10;;
47429;SDS011;33181;49.246;7.372;2023-06-10T13:00:47;9.10;;;8.13;;
47429;SDS011;33181;49.246;7.372;2023-06-10T13:03:14;10.50;;;7.90;;
47429;SDS011;33181;49.246;7.372;2023-06-10T13:05:40;9.60;;;8.20;;
47429;SDS011;33181;49.246;7.372;2023-06-10T13:08:06;8.50;;;7.60;;
47429;SDS011;33181;49.246;7.372;2023-06-10T13:10:35;8.37;;;7.53;;
47429;SDS011;33181;49.246;7.372;2023-06-10T13:13:02;8.50;;;7.70;;
47429;SDS011;33181;49.246;7.372;2023-06-10T13:15:34;8.47;;;7.67;;
47429;SDS011;33181;49.246;7.372;2023-06-10T13:18:03;9.00;;;8.07;;
47429;SDS011;33181;49.246;7.372;2023-06-10T13:20:30;9.07;;;8.17;;
47429;SDS011;33181;49.246;7.372;2023-06-10T13:22:56;8.70;;;7.90;;
47429;SDS011;33181;49.246;7.372;2023-06-10T13:25:22;9.20;;;8.40;;
47429;SDS011;33181;49.246;7.372;2023-06-10T13:27:48;9.03;;;8.13;;
47429;SDS011;33181;49.246;7.372;2023-06-10T13:30:14;8.73;;;7.93;;
47429;SDS011;33181;49.246;7.372;2023-06-10T13:32:39;11.23;;;8.40;;
47429;SDS011;33181;49.246;7.372;2023-06-10T13:35:06;8.93;;;8.03;;
47429;SDS011;33181;49.246;7.372;2023-06-10T13:37:32;9.67;;;8.70;;
47429;SDS011;33181;49.246;7.372;2023-06-10T13:39:59;9.63;;;8.63;;
47429;SDS011;33181;49.246;7.372;2023-06-10T13:42:25;9.07;;;8.20;;
47429;SDS011;33181;49.246;7.372;2023-06-10T13:44:51;9.47;;;8.53;;
47429;SDS011;33181;49.246;7.372;2023-06-10T13:47:17;9.67;;;8.87;;
47429;SDS011;33181;49.246;7.372;2023-06-10T13:49:43;9.47;;;8.57;;
47429;SDS011;33181;49.246;7.372;2023-06-10T13:52:09;9.70;;;8.70;;
47429;SDS011;33181;49.246;7.372;2023-06-10T13:54:35;9.33;;;8.47;;
47429;SDS011;33181;49.246;7.372;2023-06-10T13:57:01;9.60;;;8.60;;
47429;SDS011;33181;49.246;7.372;2023-06-10T13:59:28;10.37;;;8.67;;
47429;SDS011;33181;49.246;7.372;2023-06-10T14:01:53;9.60;;;8.70;;
47429;SDS011;33181;49.246;7.372;2023-06-10T14:04:20;9.70;;;8.70;;
47429;SDS011;33181;49.246;7.372;2023-06-10T14:06:46;11.43;;;8.83;;
47429;SDS011;33181;49.246;7.372;2023-06-10T14:09:13;10.00;;;9.10;;
47429;SDS011;33181;49.246;7.372;2023-06-10T14:11:39;9.87;;;8.97;;
47429;SDS011;33181;49.246;7.372;2023-06-10T14:14:05;9.37;;;8.47;;
47429;SDS011;33181;49.246;7.372;2023-06-10T14:16:31;12.90;;;9.60;;
47429;SDS011;33181;49.246;7.372;2023-06-10T14:18:57;10.00;;;9.00;;
47429;SDS011;33181;49.246;7.372;2023-06-10T14:21:23;11.57;;;8.97;;
47429;SDS011;33181;49.246;7.372;2023-06-10T14:23:48;10.47;;;9.40;;
47429;SDS011;33181;49.246;7.372;2023-06-10T14:26:16;10.07;;;9.07;;
47429;SDS011;33181;49.246;7.372;2023-06-10T14:28:42;10.23;;;8.83;;
47429;SDS011;33181;49.246;7.372;2023-06-10T14:31:08;9.80;;;8.80;;
47429;SDS011;33181;49.246;7.372;2023-06-10T14:33:34;9.93;;;9.03;;
47429;SDS011;33181;49.246;7.372;2023-06-10T14:36:00;12.83;;;9.00;;
47429;SDS011;33181;49.246;7.372;2023-06-10T14:38:26;9.30;;;8.40;;
47429;SDS011;33181;49.246;7.372;2023-06-10T14:40:52;9.83;;;8.83;;
47429;SDS011;33181;49.246;7.372;2023-06-10T14:43:18;9.13;;;8.30;;
47429;SDS011;33181;49.246;7.372;2023-06-10T14:45:44;9.47;;;8.47;;
47429;SDS011;33181;49.246;7.372;2023-06-10T14:48:10;9.70;;;8.63;;
47429;SDS011;33181;49.246;7.372;2023-06-10T14:50:37;9.90;;;8.90;;
47429;SDS011;33181;49.246;7.372;2023-06-10T14:53:05;9.20;;;8.20;;
47429;SDS011;33181;49.246;7.372;2023-06-10T14:55:31;10.30;;;8.13;;
47429;SDS011;33181;49.246;7.372;2023-06-10T14:57:57;9.27;;;7.87;;
47429;SDS011;33181;49.246;7.372;2023-06-10T15:00:23;8.80;;;7.90;;
47429;SDS011;33181;49.246;7.372;2023-06-10T15:02:50;8.60;;;7.80;;
47429;SDS011;33181;49.246;7.372;2023-06-10T15:05:17;7.97;;;7.17;;
47429;SDS011;33181;49.246;7.372;2023-06-10T15:07:44;8.23;;;7.40;;